sensor_id;sensor_type;location;lat;lon;timestamp;P1;durP1;ratioP1;P2;durP2;ratioP2
54177;SDS011;40085;53.004;6.770;2023-03-13T00:01:20;8.88;;;2.55;;
54177;SDS011;40085;53.004;6.770;2023-03-13T00:03:52;7.32;;;3.13;;
54177;SDS011;40085;53.004;6.770;2023-03-13T00:06:19;7.45;;;2.40;;
54177;SDS011;40085;53.004;6.770;2023-03-13T00:08:46;7.40;;;2.85;;
54177;SDS011;40085;53.004;6.770;2023-03-13T00:11:12;8.75;;;2.15;;
54177;SDS011;40085;53.004;6.770;2023-03-13T00:13:39;13.95;;;2.30;;
54177;SDS011;40085;53.004;6.770;2023-03-13T00:16:06;15.60;;;3.60;;
54177;SDS011;40085;53.004;6.770;2023-03-13T00:18:34;15.75;;;3.00;;
54177;SDS011;40085;53.004;6.770;2023-03-13T00:21:04;15.65;;;2.53;;
54177;SDS011;40085;53.004;6.770;2023-03-13T00:23:32;8.30;;;2.13;;
54177;SDS011;40085;53.004;6.770;2023-03-13T00:25:59;7.15;;;2.75;;
54177;SDS011;40085;53.004;6.770;2023-03-13T00:28:26;6.30;;;1.58;;
54177;SDS011;40085;53.004;6.770;2023-03-13T00:31:07;9.90;;;2.78;;
54177;SDS011;40085;53.004;6.770;2023-03-13T00:33:37;8.15;;;2.42;;
54177;SDS011;40085;53.004;6.770;2023-03-13T00:36:05;11.77;;;2.05;;
54177;SDS011;40085;53.004;6.770;2023-03-13T00:38:33;9.75;;;2.65;;
54177;SDS011;40085;53.004;6.770;2023-03-13T00:41:09;5.28;;;1.85;;
54177;SDS011;40085;53.004;6.770;2023-03-13T00:43:39;10.55;;;1.85;;
54177;SDS011;40085;53.004;6.770;2023-03-13T00:46:07;5.57;;;1.13;;
54177;SDS011;40085;53.004;6.770;2023-03-13T00:48:33;5.88;;;2.42;;
54177;SDS011;40085;53.004;6.770;2023-03-13T00:50:59;10.23;;;2.60;;
54177;SDS011;40085;53.004;6.770;2023-03-13T00:53:25;10.30;;;2.05;;
54177;SDS011;40085;53.004;6.770;2023-03-13T00:58:21;10.40;;;1.77;;
54177;SDS011;40085;53.004;6.770;2023-03-13T01:00:48;9.48;;;2.75;;
54177;SDS011;40085;53.004;6.770;2023-03-13T01:03:14;15.52;;;1.63;;
54177;SDS011;40085;53.004;6.770;2023-03-13T01:05:40;9.77;;;2.47;;
54177;SDS011;40085;53.004;6.770;2023-03-13T01:08:06;9.55;;;2.30;;
54177;SDS011;40085;53.004;6.770;2023-03-13T01:10:32;5.68;;;2.10;;
54177;SDS011;40085;53.004;6.770;2023-03-13T01:12:58;4.78;;;1.88;;
54177;SDS011;40085;53.004;6.770;2023-03-13T01:15:23;6.57;;;2.53;;
54177;SDS011;40085;53.004;6.770;2023-03-13T01:17:50;9.38;;;2.30;;
54177;SDS011;40085;53.004;6.770;2023-03-13T01:20:16;9.68;;;2.45;;
54177;SDS011;40085;53.004;6.770;2023-03-13T01:22:41;8.60;;;1.92;;
54177;SDS011;40085;53.004;6.770;2023-03-13T01:25:07;6.93;;;2.10;;
54177;SDS011;40085;53.004;6.770;2023-03-13T01:27:33;7.85;;;2.42;;
54177;SDS011;40085;53.004;6.770;2023-03-13T01:29:58;10.02;;;2.50;;
54177;SDS011;40085;53.004;6.770;2023-03-13T01:32:24;8.98;;;2.65;;
54177;SDS011;40085;53.004;6.770;2023-03-13T01:34:50;7.25;;;1.70;;
54177;SDS011;40085;53.004;6.770;2023-03-13T01:37:15;13.57;;;2.17;;
54177;SDS011;40085;53.004;6.770;2023-03-13T01:39:41;10.00;;;1.88;;
54177;SDS011;40085;53.004;6.770;2023-03-13T01:42:07;11.70;;;2.00;;
54177;SDS011;40085;53.004;6.770;2023-03-13T01:44:54;16.90;;;2.53;;
54177;SDS011;40085;53.004;6.770;2023-03-13T01:47:22;14.10;;;1.90;;
54177;SDS011;40085;53.004;6.770;2023-03-13T01:49:48;8.88;;;1.83;;
54177;SDS011;40085;53.004;6.770;2023-03-13T01:52:20;5.93;;;2.03;;
54177;SDS011;40085;53.004;6.770;2023-03-13T01:55:00;5.50;;;1.42;;
54177;SDS011;40085;53.004;6.770;2023-03-13T01:57:30;4.43;;;1.63;;
54177;SDS011;40085;53.004;6.770;2023-03-13T02:02:35;5.43;;;1.48;;
54177;SDS011;40085;53.004;6.770;2023-03-13T02:05:05;5.43;;;1.63;;
54177;SDS011;40085;53.004;6.770;2023-03-13T02:07:36;4.20;;;1.63;;
54177;SDS011;40085;53.004;6.770;2023-03-13T02:10:09;5.90;;;2.35;;
54177;SDS011;40085;53.004;6.770;2023-03-13T02:12:38;4.60;;;2.00;;
54177;SDS011;40085;53.004;6.770;2023-03-13T02:15:06;7.07;;;2.55;;
54177;SDS011;40085;53.004;6.770;2023-03-13T02:17:35;8.20;;;2.92;;
54177;SDS011;40085;53.004;6.770;2023-03-13T02:20:03;8.73;;;2.65;;
54177;SDS011;40085;53.004;6.770;2023-03-13T02:28:06;8.93;;;1.75;;
54177;SDS011;40085;53.004;6.770;2023-03-13T02:30:33;4.82;;;2.28;;
54177;SDS011;40085;53.004;6.770;2023-03-13T02:32:59;8.65;;;2.15;;
54177;SDS011;40085;53.004;6.770;2023-03-13T02:35:26;3.67;;;1.55;;
54177;SDS011;40085;53.004;6.770;2023-03-13T02:37:54;9.95;;;2.00;;
54177;SDS011;40085;53.004;6.770;2023-03-13T02:40:24;3.97;;;2.05;;
54177;SDS011;40085;53.004;6.770;2023-03-13T02:42:57;6.38;;;1.80;;
54177;SDS011;40085;53.004;6.770;2023-03-13T02:45:26;7.97;;;2.00;;
54177;SDS011;40085;53.004;6.770;2023-03-13T02:47:51;3.47;;;1.42;;
54177;SDS011;40085;53.004;6.770;2023-03-13T02:50:17;4.15;;;1.83;;
54177;SDS011;40085;53.004;6.770;2023-03-13T02:52:44;3.80;;;1.77;;
54177;SDS011;40085;53.004;6.770;2023-03-13T02:55:26;4.07;;;1.10;;
54177;SDS011;40085;53.004;6.770;2023-03-13T02:57:55;1.85;;;0.93;;
54177;SDS011;40085;53.004;6.770;2023-03-13T03:00:20;7.97;;;1.90;;
54177;SDS011;40085;53.004;6.770;2023-03-13T03:02:50;3.28;;;1.30;;
54177;SDS011;40085;53.004;6.770;2023-03-13T03:05:20;3.92;;;1.58;;
54177;SDS011;40085;53.004;6.770;2023-03-13T03:07:46;5.47;;;1.50;;
54177;SDS011;40085;53.004;6.770;2023-03-13T03:10:12;1.27;;;0.47;;
54177;SDS011;40085;53.004;6.770;2023-03-13T03:12:38;2.72;;;1.25;;
54177;SDS011;40085;53.004;6.770;2023-03-13T03:15:04;1.77;;;1.25;;
54177;SDS011;40085;53.004;6.770;2023-03-13T03:17:30;3.25;;;1.35;;
54177;SDS011;40085;53.004;6.770;2023-03-13T03:19:55;1.77;;;1.30;;
54177;SDS011;40085;53.004;6.770;2023-03-13T03:22:21;3.75;;;0.50;;
54177;SDS011;40085;53.004;6.770;2023-03-13T03:24:47;1.85;;;0.95;;
54177;SDS011;40085;53.004;6.770;2023-03-13T03:27:12;1.75;;;1.10;;
54177;SDS011;40085;53.004;6.770;2023-03-13T03:29:38;4.07;;;1.15;;
54177;SDS011;40085;53.004;6.770;2023-03-13T03:32:03;1.58;;;0.88;;
54177;SDS011;40085;53.004;6.770;2023-03-13T03:34:29;7.07;;;1.30;;
54177;SDS011;40085;53.004;6.770;2023-03-13T03:36:55;1.85;;;0.93;;
54177;SDS011;40085;53.004;6.770;2023-03-13T03:39:21;2.03;;;0.98;;
54177;SDS011;40085;53.004;6.770;2023-03-13T03:41:46;1.17;;;0.82;;
54177;SDS011;40085;53.004;6.770;2023-03-13T03:44:12;3.88;;;0.63;;
54177;SDS011;40085;53.004;6.770;2023-03-13T03:46:38;1.13;;;0.85;;
54177;SDS011;40085;53.004;6.770;2023-03-13T03:49:03;0.77;;;0.65;;
54177;SDS011;40085;53.004;6.770;2023-03-13T03:51:29;4.00;;;1.65;;
54177;SDS011;40085;53.004;6.770;2023-03-13T03:53:54;1.23;;;0.70;;
54177;SDS011;40085;53.004;6.770;2023-03-13T03:56:20;3.65;;;1.45;;
54177;SDS011;40085;53.004;6.770;2023-03-13T03:58:45;0.85;;;0.68;;
54177;SDS011;40085;53.004;6.770;2023-03-13T04:01:11;7.40;;;1.13;;
54177;SDS011;40085;53.004;6.770;2023-03-13T04:03:37;1.40;;;0.93;;
54177;SDS011;40085;53.004;6.770;2023-03-13T04:06:02;2.50;;;1.52;;
54177;SDS011;40085;53.004;6.770;2023-03-13T04:08:28;3.17;;;1.73;;
54177;SDS011;40085;53.004;6.770;2023-03-13T04:10:54;2.45;;;1.70;;
54177;SDS011;40085;53.004;6.770;2023-03-13T04:13:19;1.48;;;1.00;;
54177;SDS011;40085;53.004;6.770;2023-03-13T04:15:45;0.70;;;0.70;;
54177;SDS011;40085;53.004;6.770;2023-03-13T04:18:11;1.48;;;0.93;;
54177;SDS011;40085;53.004;6.770;2023-03-13T04:20:37;1.17;;;0.82;;
54177;SDS011;40085;53.004;6.770;2023-03-13T04:23:02;1.38;;;0.98;;
54177;SDS011;40085;53.004;6.770;2023-03-13T04:25:28;0.80;;;0.80;;
54177;SDS011;40085;53.004;6.770;2023-03-13T04:27:53;1.52;;;1.02;;
54177;SDS011;40085;53.004;6.770;2023-03-13T04:30:19;1.48;;;0.73;;
54177;SDS011;40085;53.004;6.770;2023-03-13T04:32:45;2.55;;;1.25;;
54177;SDS011;40085;53.004;6.770;2023-03-13T04:35:10;2.03;;;0.90;;
54177;SDS011;40085;53.004;6.770;2023-03-13T04:37:36;2.60;;;1.58;;
54177;SDS011;40085;53.004;6.770;2023-03-13T04:40:02;1.63;;;0.98;;
54177;SDS011;40085;53.004;6.770;2023-03-13T04:42:28;4.78;;;2.03;;
54177;SDS011;40085;53.004;6.770;2023-03-13T04:44:53;0.95;;;0.80;;
54177;SDS011;40085;53.004;6.770;2023-03-13T04:47:19;1.75;;;1.23;;
54177;SDS011;40085;53.004;6.770;2023-03-13T04:49:44;2.03;;;1.42;;
54177;SDS011;40085;53.004;6.770;2023-03-13T04:52:10;3.53;;;1.58;;
54177;SDS011;40085;53.004;6.770;2023-03-13T04:54:36;1.88;;;0.95;;
54177;SDS011;40085;53.004;6.770;2023-03-13T04:57:02;4.90;;;1.55;;
54177;SDS011;40085;53.004;6.770;2023-03-13T04:59:28;1.85;;;1.33;;
54177;SDS011;40085;53.004;6.770;2023-03-13T05:01:54;2.53;;;1.67;;
54177;SDS011;40085;53.004;6.770;2023-03-13T05:04:19;2.50;;;1.50;;
54177;SDS011;40085;53.004;6.770;2023-03-13T05:06:45;2.15;;;1.48;;
54177;SDS011;40085;53.004;6.770;2023-03-13T05:09:10;3.28;;;1.88;;
54177;SDS011;40085;53.004;6.770;2023-03-13T05:11:36;1.58;;;1.17;;
54177;SDS011;40085;53.004;6.770;2023-03-13T05:14:02;4.10;;;1.85;;
54177;SDS011;40085;53.004;6.770;2023-03-13T05:16:28;3.47;;;1.83;;
54177;SDS011;40085;53.004;6.770;2023-03-13T05:18:53;2.97;;;1.88;;
54177;SDS011;40085;53.004;6.770;2023-03-13T05:21:19;3.05;;;1.02;;
54177;SDS011;40085;53.004;6.770;2023-03-13T05:23:45;2.03;;;1.70;;
54177;SDS011;40085;53.004;6.770;2023-03-13T05:26:10;5.28;;;2.40;;
54177;SDS011;40085;53.004;6.770;2023-03-13T05:28:36;3.15;;;1.88;;
54177;SDS011;40085;53.004;6.770;2023-03-13T05:31:01;4.47;;;3.00;;
54177;SDS011;40085;53.004;6.770;2023-03-13T05:33:27;4.00;;;2.13;;
54177;SDS011;40085;53.004;6.770;2023-03-13T05:35:53;2.97;;;1.65;;
54177;SDS011;40085;53.004;6.770;2023-03-13T05:38:18;3.40;;;2.30;;
54177;SDS011;40085;53.004;6.770;2023-03-13T05:40:44;4.45;;;2.53;;
54177;SDS011;40085;53.004;6.770;2023-03-13T05:43:09;2.63;;;2.03;;
54177;SDS011;40085;53.004;6.770;2023-03-13T05:45:35;4.38;;;1.73;;
54177;SDS011;40085;53.004;6.770;2023-03-13T05:48:01;4.93;;;2.40;;
54177;SDS011;40085;53.004;6.770;2023-03-13T05:50:26;3.63;;;2.10;;
54177;SDS011;40085;53.004;6.770;2023-03-13T05:52:52;3.90;;;1.92;;
54177;SDS011;40085;53.004;6.770;2023-03-13T05:55:17;4.65;;;1.90;;
54177;SDS011;40085;53.004;6.770;2023-03-13T05:57:46;1.88;;;1.27;;
54177;SDS011;40085;53.004;6.770;2023-03-13T06:00:13;4.22;;;2.00;;
54177;SDS011;40085;53.004;6.770;2023-03-13T06:02:40;1.88;;;1.05;;
54177;SDS011;40085;53.004;6.770;2023-03-13T06:05:07;3.03;;;2.03;;
54177;SDS011;40085;53.004;6.770;2023-03-13T06:07:33;3.63;;;1.45;;
54177;SDS011;40085;53.004;6.770;2023-03-13T06:09:59;2.72;;;1.98;;
54177;SDS011;40085;53.004;6.770;2023-03-13T06:12:24;2.85;;;1.40;;
54177;SDS011;40085;53.004;6.770;2023-03-13T06:14:50;5.25;;;2.10;;
54177;SDS011;40085;53.004;6.770;2023-03-13T06:17:16;5.70;;;2.30;;
54177;SDS011;40085;53.004;6.770;2023-03-13T06:19:41;2.33;;;1.55;;
54177;SDS011;40085;53.004;6.770;2023-03-13T06:22:07;1.60;;;1.40;;
54177;SDS011;40085;53.004;6.770;2023-03-13T06:24:32;2.03;;;1.63;;
54177;SDS011;40085;53.004;6.770;2023-03-13T06:26:58;3.90;;;2.08;;
54177;SDS011;40085;53.004;6.770;2023-03-13T06:29:24;4.18;;;2.03;;
54177;SDS011;40085;53.004;6.770;2023-03-13T06:31:50;6.45;;;2.13;;
54177;SDS011;40085;53.004;6.770;2023-03-13T06:34:16;3.10;;;1.75;;
54177;SDS011;40085;53.004;6.770;2023-03-13T06:36:42;2.92;;;1.95;;
54177;SDS011;40085;53.004;6.770;2023-03-13T06:39:08;2.47;;;1.75;;
54177;SDS011;40085;53.004;6.770;2023-03-13T06:41:35;3.67;;;2.50;;
54177;SDS011;40085;53.004;6.770;2023-03-13T06:44:00;4.97;;;2.03;;
54177;SDS011;40085;53.004;6.770;2023-03-13T06:46:26;3.22;;;2.20;;
54177;SDS011;40085;53.004;6.770;2023-03-13T06:48:52;5.47;;;2.60;;
54177;SDS011;40085;53.004;6.770;2023-03-13T06:51:18;4.13;;;2.42;;
54177;SDS011;40085;53.004;6.770;2023-03-13T06:53:46;5.88;;;2.22;;
54177;SDS011;40085;53.004;6.770;2023-03-13T06:56:12;7.38;;;2.92;;
54177;SDS011;40085;53.004;6.770;2023-03-13T06:58:38;6.13;;;2.60;;
54177;SDS011;40085;53.004;6.770;2023-03-13T07:01:07;4.72;;;2.65;;
54177;SDS011;40085;53.004;6.770;2023-03-13T07:03:34;4.75;;;2.60;;
54177;SDS011;40085;53.004;6.770;2023-03-13T07:06:00;4.25;;;2.55;;
54177;SDS011;40085;53.004;6.770;2023-03-13T07:08:28;5.65;;;1.98;;
54177;SDS011;40085;53.004;6.770;2023-03-13T07:10:56;5.85;;;2.08;;
54177;SDS011;40085;53.004;6.770;2023-03-13T07:13:23;2.57;;;1.77;;
54177;SDS011;40085;53.004;6.770;2023-03-13T07:15:49;6.78;;;2.70;;
54177;SDS011;40085;53.004;6.770;2023-03-13T07:18:15;5.43;;;2.63;;
54177;SDS011;40085;53.004;6.770;2023-03-13T07:20:41;3.33;;;2.10;;
54177;SDS011;40085;53.004;6.770;2023-03-13T07:23:07;4.03;;;1.90;;
54177;SDS011;40085;53.004;6.770;2023-03-13T07:25:33;7.93;;;2.50;;
54177;SDS011;40085;53.004;6.770;2023-03-13T07:27:59;7.78;;;2.83;;
54177;SDS011;40085;53.004;6.770;2023-03-13T07:30:25;2.25;;;1.83;;
54177;SDS011;40085;53.004;6.770;2023-03-13T07:32:51;4.07;;;2.28;;
54177;SDS011;40085;53.004;6.770;2023-03-13T07:35:17;1.88;;;1.25;;
54177;SDS011;40085;53.004;6.770;2023-03-13T07:37:43;3.28;;;1.73;;
54177;SDS011;40085;53.004;6.770;2023-03-13T07:40:08;4.07;;;2.20;;
54177;SDS011;40085;53.004;6.770;2023-03-13T07:42:38;4.10;;;2.33;;
54177;SDS011;40085;53.004;6.770;2023-03-13T07:45:04;6.50;;;2.95;;
54177;SDS011;40085;53.004;6.770;2023-03-13T07:47:32;6.00;;;2.08;;
54177;SDS011;40085;53.004;6.770;2023-03-13T07:49:58;3.95;;;2.30;;
54177;SDS011;40085;53.004;6.770;2023-03-13T07:52:24;3.15;;;1.73;;
54177;SDS011;40085;53.004;6.770;2023-03-13T07:54:51;2.63;;;1.40;;
54177;SDS011;40085;53.004;6.770;2023-03-13T07:57:17;6.85;;;1.88;;
54177;SDS011;40085;53.004;6.770;2023-03-13T07:59:43;2.97;;;1.67;;
54177;SDS011;40085;53.004;6.770;2023-03-13T08:02:10;4.38;;;1.85;;
54177;SDS011;40085;53.004;6.770;2023-03-13T08:04:37;4.95;;;1.85;;
54177;SDS011;40085;53.004;6.770;2023-03-13T08:07:08;2.03;;;1.35;;
54177;SDS011;40085;53.004;6.770;2023-03-13T08:09:34;3.33;;;1.42;;
54177;SDS011;40085;53.004;6.770;2023-03-13T08:12:00;3.53;;;1.13;;
54177;SDS011;40085;53.004;6.770;2023-03-13T08:14:26;5.13;;;1.05;;
54177;SDS011;40085;53.004;6.770;2023-03-13T08:16:51;1.85;;;1.33;;
54177;SDS011;40085;53.004;6.770;2023-03-13T08:19:17;2.40;;;1.45;;
54177;SDS011;40085;53.004;6.770;2023-03-13T08:21:43;0.60;;;0.60;;
54177;SDS011;40085;53.004;6.770;2023-03-13T08:24:09;1.58;;;1.02;;
54177;SDS011;40085;53.004;6.770;2023-03-13T08:26:37;4.25;;;1.63;;
54177;SDS011;40085;53.004;6.770;2023-03-13T08:29:09;1.00;;;0.80;;
54177;SDS011;40085;53.004;6.770;2023-03-13T08:31:37;2.25;;;1.00;;
54177;SDS011;40085;53.004;6.770;2023-03-13T08:34:07;2.10;;;0.90;;
54177;SDS011;40085;53.004;6.770;2023-03-13T08:36:34;1.65;;;1.15;;
54177;SDS011;40085;53.004;6.770;2023-03-13T08:39:03;1.88;;;1.23;;
54177;SDS011;40085;53.004;6.770;2023-03-13T08:41:31;1.58;;;1.20;;
54177;SDS011;40085;53.004;6.770;2023-03-13T08:44:00;2.23;;;1.17;;
54177;SDS011;40085;53.004;6.770;2023-03-13T08:46:27;0.85;;;0.63;;
54177;SDS011;40085;53.004;6.770;2023-03-13T08:48:54;1.45;;;0.80;;
54177;SDS011;40085;53.004;6.770;2023-03-13T08:51:21;1.83;;;1.33;;
54177;SDS011;40085;53.004;6.770;2023-03-13T08:53:48;2.80;;;0.85;;
54177;SDS011;40085;53.004;6.770;2023-03-13T08:56:16;3.20;;;1.13;;
54177;SDS011;40085;53.004;6.770;2023-03-13T08:58:42;5.80;;;1.40;;
54177;SDS011;40085;53.004;6.770;2023-03-13T09:01:12;3.42;;;1.73;;
54177;SDS011;40085;53.004;6.770;2023-03-13T09:03:39;1.63;;;0.68;;
54177;SDS011;40085;53.004;6.770;2023-03-13T09:06:05;2.05;;;1.42;;
54177;SDS011;40085;53.004;6.770;2023-03-13T09:08:32;2.15;;;1.30;;
54177;SDS011;40085;53.004;6.770;2023-03-13T09:11:00;1.52;;;1.13;;
54177;SDS011;40085;53.004;6.770;2023-03-13T09:13:28;2.22;;;1.33;;
54177;SDS011;40085;53.004;6.770;2023-03-13T09:15:59;6.30;;;1.67;;
54177;SDS011;40085;53.004;6.770;2023-03-13T09:18:26;3.92;;;1.25;;
54177;SDS011;40085;53.004;6.770;2023-03-13T09:20:52;5.43;;;1.88;;
54177;SDS011;40085;53.004;6.770;2023-03-13T09:23:18;1.45;;;0.95;;
54177;SDS011;40085;53.004;6.770;2023-03-13T09:25:44;5.00;;;1.27;;
54177;SDS011;40085;53.004;6.770;2023-03-13T09:28:11;2.08;;;1.42;;
54177;SDS011;40085;53.004;6.770;2023-03-13T09:30:36;5.28;;;1.40;;
54177;SDS011;40085;53.004;6.770;2023-03-13T09:33:02;3.95;;;2.17;;
54177;SDS011;40085;53.004;6.770;2023-03-13T09:35:28;3.45;;;1.35;;
54177;SDS011;40085;53.004;6.770;2023-03-13T09:37:53;1.50;;;1.00;;
54177;SDS011;40085;53.004;6.770;2023-03-13T09:40:21;2.15;;;1.27;;
54177;SDS011;40085;53.004;6.770;2023-03-13T09:42:50;1.83;;;1.15;;
54177;SDS011;40085;53.004;6.770;2023-03-13T09:45:29;1.80;;;1.27;;
54177;SDS011;40085;53.004;6.770;2023-03-13T09:48:17;1.02;;;0.93;;
54177;SDS011;40085;53.004;6.770;2023-03-13T09:50:49;1.60;;;1.00;;
54177;SDS011;40085;53.004;6.770;2023-03-13T09:53:45;3.67;;;1.38;;
54177;SDS011;40085;53.004;6.770;2023-03-13T09:56:27;2.55;;;1.25;;
54177;SDS011;40085;53.004;6.770;2023-03-13T09:59:10;3.80;;;1.27;;
54177;SDS011;40085;53.004;6.770;2023-03-13T10:01:43;8.88;;;1.10;;
54177;SDS011;40085;53.004;6.770;2023-03-13T10:04:13;3.85;;;1.13;;
54177;SDS011;40085;53.004;6.770;2023-03-13T10:06:52;2.60;;;1.42;;
54177;SDS011;40085;53.004;6.770;2023-03-13T10:09:27;2.15;;;1.02;;
54177;SDS011;40085;53.004;6.770;2023-03-13T10:11:57;2.95;;;1.40;;
54177;SDS011;40085;53.004;6.770;2023-03-13T10:17:44;3.63;;;1.77;;
54177;SDS011;40085;53.004;6.770;2023-03-13T10:20:21;2.40;;;1.10;;
54177;SDS011;40085;53.004;6.770;2023-03-13T10:25:58;1.55;;;0.90;;
54177;SDS011;40085;53.004;6.770;2023-03-13T10:28:24;1.77;;;1.00;;
54177;SDS011;40085;53.004;6.770;2023-03-13T10:30:52;1.67;;;1.02;;
54177;SDS011;40085;53.004;6.770;2023-03-13T10:33:25;2.55;;;1.17;;
54177;SDS011;40085;53.004;6.770;2023-03-13T10:36:04;1.90;;;0.77;;
54177;SDS011;40085;53.004;6.770;2023-03-13T10:38:44;4.10;;;0.85;;
54177;SDS011;40085;53.004;6.770;2023-03-13T10:43:53;3.70;;;0.82;;
54177;SDS011;40085;53.004;6.770;2023-03-13T10:46:27;3.00;;;1.52;;
54177;SDS011;40085;53.004;6.770;2023-03-13T10:48:59;3.10;;;1.27;;
54177;SDS011;40085;53.004;6.770;2023-03-13T10:51:36;4.97;;;1.02;;
54177;SDS011;40085;53.004;6.770;2023-03-13T10:54:12;2.10;;;0.90;;
54177;SDS011;40085;53.004;6.770;2023-03-13T10:59:43;3.47;;;0.75;;
54177;SDS011;40085;53.004;6.770;2023-03-13T11:04:51;5.32;;;1.20;;
54177;SDS011;40085;53.004;6.770;2023-03-13T11:07:27;3.15;;;0.60;;
54177;SDS011;40085;53.004;6.770;2023-03-13T11:10:01;1.92;;;0.82;;
54177;SDS011;40085;53.004;6.770;2023-03-13T11:12:50;11.65;;;1.02;;
54177;SDS011;40085;53.004;6.770;2023-03-13T11:15:18;1.63;;;0.50;;
54177;SDS011;40085;53.004;6.770;2023-03-13T11:18:00;5.10;;;1.15;;
54177;SDS011;40085;53.004;6.770;2023-03-13T11:20:41;2.78;;;1.15;;
54177;SDS011;40085;53.004;6.770;2023-03-13T11:31:28;3.08;;;0.80;;
54177;SDS011;40085;53.004;6.770;2023-03-13T11:37:01;5.65;;;1.38;;
54177;SDS011;40085;53.004;6.770;2023-03-13T11:39:48;3.65;;;0.77;;
54177;SDS011;40085;53.004;6.770;2023-03-13T11:48:21;3.30;;;1.23;;
54177;SDS011;40085;53.004;6.770;2023-03-13T11:56:46;2.85;;;0.60;;
54177;SDS011;40085;53.004;6.770;2023-03-13T11:59:34;1.30;;;0.50;;
54177;SDS011;40085;53.004;6.770;2023-03-13T12:02:25;1.33;;;0.70;;
54177;SDS011;40085;53.004;6.770;2023-03-13T12:05:00;1.30;;;0.47;;
54177;SDS011;40085;53.004;6.770;2023-03-13T12:10:00;1.17;;;0.43;;
54177;SDS011;40085;53.004;6.770;2023-03-13T12:15:22;4.45;;;0.80;;
54177;SDS011;40085;53.004;6.770;2023-03-13T12:17:59;1.80;;;0.50;;
54177;SDS011;40085;53.004;6.770;2023-03-13T12:20:37;2.25;;;0.70;;
54177;SDS011;40085;53.004;6.770;2023-03-13T12:23:18;1.55;;;0.68;;
54177;SDS011;40085;53.004;6.770;2023-03-13T12:25:50;2.17;;;0.98;;
54177;SDS011;40085;53.004;6.770;2023-03-13T12:28:28;1.70;;;0.60;;
54177;SDS011;40085;53.004;6.770;2023-03-13T12:31:03;2.70;;;0.77;;
54177;SDS011;40085;53.004;6.770;2023-03-13T12:33:41;0.70;;;0.50;;
54177;SDS011;40085;53.004;6.770;2023-03-13T12:36:18;2.03;;;0.60;;
54177;SDS011;40085;53.004;6.770;2023-03-13T12:38:49;2.50;;;0.98;;
54177;SDS011;40085;53.004;6.770;2023-03-13T12:41:19;1.20;;;0.88;;
54177;SDS011;40085;53.004;6.770;2023-03-13T12:43:49;2.13;;;0.68;;
54177;SDS011;40085;53.004;6.770;2023-03-13T12:46:22;4.95;;;0.85;;
54177;SDS011;40085;53.004;6.770;2023-03-13T12:51:43;1.33;;;0.65;;
54177;SDS011;40085;53.004;6.770;2023-03-13T12:54:26;2.15;;;0.60;;
54177;SDS011;40085;53.004;6.770;2023-03-13T12:57:23;1.00;;;0.32;;
54177;SDS011;40085;53.004;6.770;2023-03-13T13:00:12;1.15;;;0.90;;
54177;SDS011;40085;53.004;6.770;2023-03-13T13:03:01;4.50;;;1.15;;
54177;SDS011;40085;53.004;6.770;2023-03-13T13:14:35;1.02;;;0.80;;
54177;SDS011;40085;53.004;6.770;2023-03-13T13:16:53;8.30;;;1.00;;
54177;SDS011;40085;53.004;6.770;2023-03-13T13:25:00;1.50;;;0.70;;
54177;SDS011;40085;53.004;6.770;2023-03-13T13:27:47;2.20;;;0.80;;
54177;SDS011;40085;53.004;6.770;2023-03-13T13:32:45;4.25;;;1.05;;
54177;SDS011;40085;53.004;6.770;2023-03-13T13:35:26;2.25;;;0.85;;
54177;SDS011;40085;53.004;6.770;2023-03-13T13:38:18;5.60;;;1.10;;
54177;SDS011;40085;53.004;6.770;2023-03-13T13:40:41;9.07;;;1.02;;
54177;SDS011;40085;53.004;6.770;2023-03-13T13:43:21;3.50;;;1.00;;
54177;SDS011;40085;53.004;6.770;2023-03-13T13:46:33;2.67;;;0.98;;
54177;SDS011;40085;53.004;6.770;2023-03-13T13:49:35;4.60;;;2.03;;
54177;SDS011;40085;53.004;6.770;2023-03-13T13:52:16;17.53;;;1.80;;
54177;SDS011;40085;53.004;6.770;2023-03-13T13:57:06;3.58;;;1.00;;
54177;SDS011;40085;53.004;6.770;2023-03-13T13:59:40;5.05;;;1.02;;
54177;SDS011;40085;53.004;6.770;2023-03-13T14:04:35;14.57;;;1.90;;
54177;SDS011;40085;53.004;6.770;2023-03-13T14:07:04;7.10;;;1.52;;
54177;SDS011;40085;53.004;6.770;2023-03-13T14:12:31;6.93;;;1.20;;
54177;SDS011;40085;53.004;6.770;2023-03-13T14:15:16;6.50;;;1.67;;
54177;SDS011;40085;53.004;6.770;2023-03-13T14:17:43;3.53;;;0.70;;
54177;SDS011;40085;53.004;6.770;2023-03-13T14:23:03;7.05;;;1.65;;
54177;SDS011;40085;53.004;6.770;2023-03-13T14:25:40;4.80;;;1.00;;
54177;SDS011;40085;53.004;6.770;2023-03-13T14:28:17;7.32;;;2.33;;
54177;SDS011;40085;53.004;6.770;2023-03-13T14:30:52;7.80;;;1.45;;
54177;SDS011;40085;53.004;6.770;2023-03-13T14:33:19;6.40;;;1.45;;
54177;SDS011;40085;53.004;6.770;2023-03-13T14:35:45;4.95;;;1.15;;
54177;SDS011;40085;53.004;6.770;2023-03-13T14:38:15;7.75;;;1.42;;
54177;SDS011;40085;53.004;6.770;2023-03-13T14:40:42;3.80;;;1.05;;
54177;SDS011;40085;53.004;6.770;2023-03-13T14:43:16;5.13;;;1.02;;
54177;SDS011;40085;53.004;6.770;2023-03-13T14:50:45;8.30;;;1.80;;
54177;SDS011;40085;53.004;6.770;2023-03-13T14:53:16;4.93;;;1.35;;
54177;SDS011;40085;53.004;6.770;2023-03-13T14:55:44;6.95;;;1.75;;
54177;SDS011;40085;53.004;6.770;2023-03-13T15:00:53;3.92;;;1.25;;
54177;SDS011;40085;53.004;6.770;2023-03-13T15:03:26;12.48;;;1.20;;
54177;SDS011;40085;53.004;6.770;2023-03-13T15:08:34;3.85;;;1.05;;
54177;SDS011;40085;53.004;6.770;2023-03-13T15:11:15;3.00;;;0.80;;
54177;SDS011;40085;53.004;6.770;2023-03-13T15:13:52;3.90;;;1.15;;
54177;SDS011;40085;53.004;6.770;2023-03-13T15:16:19;3.80;;;1.13;;
54177;SDS011;40085;53.004;6.770;2023-03-13T15:18:46;2.83;;;1.17;;
54177;SDS011;40085;53.004;6.770;2023-03-13T15:23:39;3.35;;;1.20;;
54177;SDS011;40085;53.004;6.770;2023-03-13T15:26:06;10.93;;;1.67;;
54177;SDS011;40085;53.004;6.770;2023-03-13T15:28:32;4.22;;;1.15;;
54177;SDS011;40085;53.004;6.770;2023-03-13T15:30:57;3.38;;;1.10;;
54177;SDS011;40085;53.004;6.770;2023-03-13T15:33:25;8.68;;;1.35;;
54177;SDS011;40085;53.004;6.770;2023-03-13T15:35:52;6.57;;;1.08;;
54177;SDS011;40085;53.004;6.770;2023-03-13T15:38:23;5.53;;;1.27;;
54177;SDS011;40085;53.004;6.770;2023-03-13T15:40:50;7.32;;;1.60;;
54177;SDS011;40085;53.004;6.770;2023-03-13T15:43:16;9.68;;;2.33;;
54177;SDS011;40085;53.004;6.770;2023-03-13T15:45:43;5.63;;;1.27;;
54177;SDS011;40085;53.004;6.770;2023-03-13T15:48:19;4.35;;;0.98;;
54177;SDS011;40085;53.004;6.770;2023-03-13T15:50:57;11.10;;;1.08;;
54177;SDS011;40085;53.004;6.770;2023-03-13T15:53:25;5.35;;;1.17;;
54177;SDS011;40085;53.004;6.770;2023-03-13T15:55:54;5.63;;;1.65;;
54177;SDS011;40085;53.004;6.770;2023-03-13T15:58:21;0.52;;;0.52;;
54177;SDS011;40085;53.004;6.770;2023-03-13T16:00:48;7.25;;;1.25;;
54177;SDS011;40085;53.004;6.770;2023-03-13T16:03:16;7.13;;;1.10;;
54177;SDS011;40085;53.004;6.770;2023-03-13T16:05:48;8.95;;;1.60;;
54177;SDS011;40085;53.004;6.770;2023-03-13T16:08:18;6.15;;;1.50;;
54177;SDS011;40085;53.004;6.770;2023-03-13T16:10:48;6.65;;;1.25;;
54177;SDS011;40085;53.004;6.770;2023-03-13T16:13:14;7.80;;;1.67;;
54177;SDS011;40085;53.004;6.770;2023-03-13T16:15:40;3.80;;;1.42;;
54177;SDS011;40085;53.004;6.770;2023-03-13T16:18:06;9.15;;;1.30;;
54177;SDS011;40085;53.004;6.770;2023-03-13T16:20:37;7.50;;;1.52;;
54177;SDS011;40085;53.004;6.770;2023-03-13T16:23:03;6.28;;;1.30;;
54177;SDS011;40085;53.004;6.770;2023-03-13T16:25:29;4.13;;;1.17;;
54177;SDS011;40085;53.004;6.770;2023-03-13T16:27:56;5.40;;;1.27;;
54177;SDS011;40085;53.004;6.770;2023-03-13T16:30:27;9.40;;;1.52;;
54177;SDS011;40085;53.004;6.770;2023-03-13T16:32:54;9.85;;;1.63;;
54177;SDS011;40085;53.004;6.770;2023-03-13T16:35:20;5.45;;;1.30;;
54177;SDS011;40085;53.004;6.770;2023-03-13T16:37:47;4.15;;;1.42;;